Huvudsida
METAR-TAF:

METAR-TAF

Flygplatser :

Militär flygplats

Khamis Mushait, Saudiarabien

latitud: 18-18N, longitud: 042-48E, höjd: 2066 m

Aktuellt väderrapport

Denna rapport gjordes för 1 timme och 11 minuter sedan, klockan 13:00 UTC
Vind 14 kt från nordost
Temperatur 32°C
Fuktighet 10%
Tryck 1019 hPa
Sikt 10 km eller mer
Få moln på en höjd av 2200 ft

METAR: OEKM 241300Z 04014KT 9999 FEW022 32/M04 Q1019 NOSIG

Tid: 17:11 (14:11 UTC)

Väderprognos

Denna rapport gjordes för 3 timmar och 11 minuter sedan, klockan 11:00 UTC
Prognos gäller från 24 kl. 12 UTC till 25 kl. 18 UTC
Vind 8 kt från väst/sydväst i byarna ända upp till 18 kt
Sikt: 8000 m
Få moln på en höjd av 2000 ft
Sannolikhet 30% :
Temporärt
från 24 kl. 12 UTC till 24 kl. 18 UTC
Få moln på en höjd av 2500 ft, Cumulonimbus.
Blir
från 24 kl. 18 UTC till 24 kl. 20 UTC
Vind 3 kt varierande vindriktning

TAF: OEKM 241100Z 2412/2518 24008G18KT 8000 FEW020 PROB30 TEMPO 2412/2418 FEW025CB BECMG 2418/2420 VRB03KT

Aktuella väderrapporter och prognoser från 4000 flygplatser (METAR- och TAF-rapporter).

De tillgängliga stationerna syns som gula och röda prickar på kartan.

För musen över prickarna för att se namnen på stationerna.

Klicka sedan för att få väderrapporter och prognoser.

För att ändra kartan: Klicka på de gröna knapparna med ett svart kors på för att zooma in; den gröna knappen med ett streck på för att zooma ut; eller på de gröna pilarna för angränsande kartor.


METAR-TAF: